sensor_id;sensor_type;location;lat;lon;timestamp;temperature;humidity
14031;DHT22;7090;49.436;8.490;2022-09-09T00:00:49;16.20;99.90
14031;DHT22;7090;49.436;8.490;2022-09-09T00:03:35;16.30;99.90
14031;DHT22;7090;49.436;8.490;2022-09-09T00:06:42;16.30;99.90
14031;DHT22;7090;49.436;8.490;2022-09-09T00:09:19;16.20;99.90
14031;DHT22;7090;49.436;8.490;2022-09-09T00:20:09;16.40;99.90
14031;DHT22;7090;49.436;8.490;2022-09-09T00:22:45;16.30;99.90
14031;DHT22;7090;49.436;8.490;2022-09-09T00:25:23;16.30;99.90
14031;DHT22;7090;49.436;8.490;2022-09-09T00:27:51;16.40;99.90
14031;DHT22;7090;49.436;8.490;2022-09-09T00:30:26;16.40;99.90
14031;DHT22;7090;49.436;8.490;2022-09-09T00:32:59;16.50;99.90
14031;DHT22;7090;49.436;8.490;2022-09-09T00:37:57;16.40;99.90
14031;DHT22;7090;49.436;8.490;2022-09-09T00:40:41;16.30;99.90
14031;DHT22;7090;49.436;8.490;2022-09-09T00:51:17;16.50;99.90
14031;DHT22;7090;49.436;8.490;2022-09-09T00:57:03;16.50;99.90
14031;DHT22;7090;49.436;8.490;2022-09-09T00:59:51;16.60;99.90
14031;DHT22;7090;49.436;8.490;2022-09-09T01:04:53;16.80;99.90
14031;DHT22;7090;49.436;8.490;2022-09-09T01:07:20;16.80;99.90
14031;DHT22;7090;49.436;8.490;2022-09-09T01:10:00;17.00;99.90
14031;DHT22;7090;49.436;8.490;2022-09-09T01:12:42;16.80;99.90
14031;DHT22;7090;49.436;8.490;2022-09-09T01:15:21;16.80;99.90
14031;DHT22;7090;49.436;8.490;2022-09-09T01:17:52;16.80;99.90
14031;DHT22;7090;49.436;8.490;2022-09-09T01:23:25;16.60;99.90
14031;DHT22;7090;49.436;8.490;2022-09-09T01:26:18;16.60;99.90
14031;DHT22;7090;49.436;8.490;2022-09-09T01:28:50;16.60;99.90
14031;DHT22;7090;49.436;8.490;2022-09-09T01:31:23;16.50;99.90
14031;DHT22;7090;49.436;8.490;2022-09-09T01:33:51;16.50;99.90
14031;DHT22;7090;49.436;8.490;2022-09-09T01:36:46;16.40;99.90
14031;DHT22;7090;49.436;8.490;2022-09-09T01:39:13;16.40;99.90
14031;DHT22;7090;49.436;8.490;2022-09-09T01:41:39;16.40;99.90
14031;DHT22;7090;49.436;8.490;2022-09-09T01:44:05;16.50;99.90
14031;DHT22;7090;49.436;8.490;2022-09-09T01:46:32;16.40;99.90
14031;DHT22;7090;49.436;8.490;2022-09-09T01:48:59;16.40;99.90
14031;DHT22;7090;49.436;8.490;2022-09-09T01:51:25;16.50;99.90
14031;DHT22;7090;49.436;8.490;2022-09-09T01:53:51;16.60;99.90
14031;DHT22;7090;49.436;8.490;2022-09-09T02:02:09;16.60;99.90
14031;DHT22;7090;49.436;8.490;2022-09-09T02:05:25;16.70;99.90
14031;DHT22;7090;49.436;8.490;2022-09-09T02:07:41;16.70;99.90
14031;DHT22;7090;49.436;8.490;2022-09-09T02:10:17;16.70;99.90
14031;DHT22;7090;49.436;8.490;2022-09-09T02:12:47;16.70;99.90
14031;DHT22;7090;49.436;8.490;2022-09-09T02:15:22;16.60;99.90
14031;DHT22;7090;49.436;8.490;2022-09-09T02:17:50;16.60;99.90
14031;DHT22;7090;49.436;8.490;2022-09-09T02:20:18;16.70;99.90
14031;DHT22;7090;49.436;8.490;2022-09-09T02:22:46;16.70;99.90
14031;DHT22;7090;49.436;8.490;2022-09-09T02:25:14;16.60;99.90
14031;DHT22;7090;49.436;8.490;2022-09-09T02:27:43;16.60;99.90
14031;DHT22;7090;49.436;8.490;2022-09-09T02:30:10;16.60;99.90
14031;DHT22;7090;49.436;8.490;2022-09-09T02:32:38;16.70;99.90
14031;DHT22;7090;49.436;8.490;2022-09-09T02:35:13;16.80;99.90
14031;DHT22;7090;49.436;8.490;2022-09-09T02:37:41;16.80;99.90
14031;DHT22;7090;49.436;8.490;2022-09-09T02:40:10;17.00;99.90
14031;DHT22;7090;49.436;8.490;2022-09-09T02:42:45;16.90;99.90
14031;DHT22;7090;49.436;8.490;2022-09-09T02:45:12;16.90;99.90
14031;DHT22;7090;49.436;8.490;2022-09-09T02:47:58;17.00;99.90
14031;DHT22;7090;49.436;8.490;2022-09-09T02:50:35;17.00;99.90
14031;DHT22;7090;49.436;8.490;2022-09-09T02:53:09;16.90;99.90
14031;DHT22;7090;49.436;8.490;2022-09-09T02:56:00;16.80;99.90
14031;DHT22;7090;49.436;8.490;2022-09-09T02:58:29;16.90;99.90
14031;DHT22;7090;49.436;8.490;2022-09-09T03:00:55;16.90;99.90
14031;DHT22;7090;49.436;8.490;2022-09-09T03:03:22;16.80;99.90
14031;DHT22;7090;49.436;8.490;2022-09-09T03:05:48;16.80;99.90
14031;DHT22;7090;49.436;8.490;2022-09-09T03:08:14;16.80;99.90
14031;DHT22;7090;49.436;8.490;2022-09-09T03:10:40;16.80;99.90
14031;DHT22;7090;49.436;8.490;2022-09-09T03:13:06;16.70;99.90
14031;DHT22;7090;49.436;8.490;2022-09-09T03:15:33;16.70;99.90
14031;DHT22;7090;49.436;8.490;2022-09-09T03:17:59;16.70;99.90
14031;DHT22;7090;49.436;8.490;2022-09-09T03:20:25;16.60;99.90
14031;DHT22;7090;49.436;8.490;2022-09-09T03:22:52;16.60;99.90
14031;DHT22;7090;49.436;8.490;2022-09-09T03:25:17;16.50;99.90
14031;DHT22;7090;49.436;8.490;2022-09-09T03:27:43;16.30;99.90
14031;DHT22;7090;49.436;8.490;2022-09-09T03:30:09;16.30;99.90
14031;DHT22;7090;49.436;8.490;2022-09-09T03:32:35;16.30;99.90
14031;DHT22;7090;49.436;8.490;2022-09-09T03:35:00;16.30;99.90
14031;DHT22;7090;49.436;8.490;2022-09-09T03:37:26;16.40;99.90
14031;DHT22;7090;49.436;8.490;2022-09-09T03:39:51;16.40;99.90
14031;DHT22;7090;49.436;8.490;2022-09-09T03:42:19;16.40;99.90
14031;DHT22;7090;49.436;8.490;2022-09-09T03:44:48;16.40;99.90
14031;DHT22;7090;49.436;8.490;2022-09-09T03:47:19;16.40;99.90
14031;DHT22;7090;49.436;8.490;2022-09-09T03:49:47;16.40;99.90
14031;DHT22;7090;49.436;8.490;2022-09-09T03:52:14;16.50;99.90
14031;DHT22;7090;49.436;8.490;2022-09-09T03:54:39;16.40;99.90
14031;DHT22;7090;49.436;8.490;2022-09-09T03:57:06;16.40;99.90
14031;DHT22;7090;49.436;8.490;2022-09-09T03:59:32;16.40;99.90
14031;DHT22;7090;49.436;8.490;2022-09-09T04:01:58;16.30;99.90
14031;DHT22;7090;49.436;8.490;2022-09-09T04:04:24;16.30;99.90
14031;DHT22;7090;49.436;8.490;2022-09-09T04:06:51;16.40;99.90
14031;DHT22;7090;49.436;8.490;2022-09-09T04:09:17;16.30;99.90
14031;DHT22;7090;49.436;8.490;2022-09-09T04:11:43;16.30;99.90
14031;DHT22;7090;49.436;8.490;2022-09-09T04:14:08;16.30;99.90
14031;DHT22;7090;49.436;8.490;2022-09-09T04:16:34;16.20;99.90
14031;DHT22;7090;49.436;8.490;2022-09-09T04:19:02;16.20;99.90
14031;DHT22;7090;49.436;8.490;2022-09-09T04:21:30;16.20;99.90
14031;DHT22;7090;49.436;8.490;2022-09-09T04:23:55;16.20;99.90
14031;DHT22;7090;49.436;8.490;2022-09-09T04:26:21;16.30;99.90
14031;DHT22;7090;49.436;8.490;2022-09-09T04:28:47;16.30;99.90
14031;DHT22;7090;49.436;8.490;2022-09-09T04:31:20;16.20;99.90
14031;DHT22;7090;49.436;8.490;2022-09-09T04:33:49;16.20;99.90
14031;DHT22;7090;49.436;8.490;2022-09-09T04:36:15;16.20;99.90
14031;DHT22;7090;49.436;8.490;2022-09-09T04:38:40;16.20;99.90
14031;DHT22;7090;49.436;8.490;2022-09-09T04:41:06;16.30;99.90
14031;DHT22;7090;49.436;8.490;2022-09-09T04:43:33;16.30;99.90
14031;DHT22;7090;49.436;8.490;2022-09-09T04:45:59;16.30;99.90
14031;DHT22;7090;49.436;8.490;2022-09-09T04:48:25;16.30;99.90
14031;DHT22;7090;49.436;8.490;2022-09-09T04:53:20;16.20;99.90
14031;DHT22;7090;49.436;8.490;2022-09-09T04:55:47;16.20;99.90
14031;DHT22;7090;49.436;8.490;2022-09-09T04:58:14;16.20;99.90
14031;DHT22;7090;49.436;8.490;2022-09-09T05:00:39;16.20;99.90
14031;DHT22;7090;49.436;8.490;2022-09-09T05:03:05;16.20;99.90
14031;DHT22;7090;49.436;8.490;2022-09-09T05:05:32;16.20;99.90
14031;DHT22;7090;49.436;8.490;2022-09-09T05:08:06;16.20;99.90
14031;DHT22;7090;49.436;8.490;2022-09-09T05:10:33;16.10;99.90
14031;DHT22;7090;49.436;8.490;2022-09-09T05:12:59;16.30;99.90
14031;DHT22;7090;49.436;8.490;2022-09-09T05:15:24;16.30;99.90
14031;DHT22;7090;49.436;8.490;2022-09-09T05:17:50;16.20;99.90
14031;DHT22;7090;49.436;8.490;2022-09-09T05:20:17;16.30;99.90
14031;DHT22;7090;49.436;8.490;2022-09-09T05:22:43;16.30;99.90
14031;DHT22;7090;49.436;8.490;2022-09-09T05:25:09;16.30;99.90
14031;DHT22;7090;49.436;8.490;2022-09-09T05:27:35;16.30;99.90
14031;DHT22;7090;49.436;8.490;2022-09-09T05:30:00;16.30;99.90
14031;DHT22;7090;49.436;8.490;2022-09-09T05:32:26;16.30;99.90
14031;DHT22;7090;49.436;8.490;2022-09-09T05:34:53;16.40;99.90
14031;DHT22;7090;49.436;8.490;2022-09-09T05:37:19;16.40;99.90
14031;DHT22;7090;49.436;8.490;2022-09-09T05:39:44;16.40;99.90
14031;DHT22;7090;49.436;8.490;2022-09-09T05:42:10;16.60;99.90
14031;DHT22;7090;49.436;8.490;2022-09-09T05:44:36;16.80;99.90
14031;DHT22;7090;49.436;8.490;2022-09-09T05:47:02;16.80;99.90
14031;DHT22;7090;49.436;8.490;2022-09-09T05:49:28;16.60;99.90
14031;DHT22;7090;49.436;8.490;2022-09-09T05:51:54;16.50;99.90
14031;DHT22;7090;49.436;8.490;2022-09-09T05:54:19;16.60;99.90
14031;DHT22;7090;49.436;8.490;2022-09-09T05:56:45;16.60;99.90
14031;DHT22;7090;49.436;8.490;2022-09-09T05:59:11;16.60;99.90
14031;DHT22;7090;49.436;8.490;2022-09-09T06:01:38;16.60;99.90
14031;DHT22;7090;49.436;8.490;2022-09-09T06:04:07;16.60;99.90
14031;DHT22;7090;49.436;8.490;2022-09-09T06:06:35;16.70;99.90
14031;DHT22;7090;49.436;8.490;2022-09-09T06:09:06;16.70;99.90
14031;DHT22;7090;49.436;8.490;2022-09-09T06:11:36;16.70;99.90
14031;DHT22;7090;49.436;8.490;2022-09-09T06:14:02;16.90;99.90
14031;DHT22;7090;49.436;8.490;2022-09-09T06:16:29;17.30;99.90
14031;DHT22;7090;49.436;8.490;2022-09-09T06:18:56;17.50;99.00
14031;DHT22;7090;49.436;8.490;2022-09-09T06:21:42;17.70;1.00
14031;DHT22;7090;49.436;8.490;2022-09-09T06:24:10;17.90;1.00
14031;DHT22;7090;49.436;8.490;2022-09-09T06:26:38;17.90;1.00
14031;DHT22;7090;49.436;8.490;2022-09-09T06:29:06;17.50;1.00
14031;DHT22;7090;49.436;8.490;2022-09-09T06:31:33;17.20;99.90
14031;DHT22;7090;49.436;8.490;2022-09-09T06:34:00;17.10;99.90
14031;DHT22;7090;49.436;8.490;2022-09-09T06:36:28;17.00;99.90
14031;DHT22;7090;49.436;8.490;2022-09-09T06:38:55;17.00;99.90
14031;DHT22;7090;49.436;8.490;2022-09-09T06:41:22;17.00;99.90
14031;DHT22;7090;49.436;8.490;2022-09-09T06:43:48;17.00;99.90
14031;DHT22;7090;49.436;8.490;2022-09-09T06:46:19;17.10;99.90
14031;DHT22;7090;49.436;8.490;2022-09-09T06:48:47;17.10;99.90
14031;DHT22;7090;49.436;8.490;2022-09-09T06:53:42;17.20;99.90
14031;DHT22;7090;49.436;8.490;2022-09-09T06:58:35;17.30;99.90
14031;DHT22;7090;49.436;8.490;2022-09-09T07:01:07;17.40;99.90
14031;DHT22;7090;49.436;8.490;2022-09-09T07:03:33;17.50;99.90
14031;DHT22;7090;49.436;8.490;2022-09-09T07:05:59;17.70;37.90
14031;DHT22;7090;49.436;8.490;2022-09-09T07:08:25;18.20;1.00
14031;DHT22;7090;49.436;8.490;2022-09-09T07:10:52;18.40;1.00
14031;DHT22;7090;49.436;8.490;2022-09-09T07:13:26;18.50;1.00
14031;DHT22;7090;49.436;8.490;2022-09-09T07:15:52;18.30;1.00
14031;DHT22;7090;49.436;8.490;2022-09-09T07:18:19;18.50;1.00
14031;DHT22;7090;49.436;8.490;2022-09-09T07:20:53;18.80;1.00
14031;DHT22;7090;49.436;8.490;2022-09-09T07:23:19;18.90;1.00
14031;DHT22;7090;49.436;8.490;2022-09-09T07:25:45;19.00;1.00
14031;DHT22;7090;49.436;8.490;2022-09-09T07:28:11;19.00;1.00
14031;DHT22;7090;49.436;8.490;2022-09-09T07:30:37;19.00;1.00
14031;DHT22;7090;49.436;8.490;2022-09-09T07:33:02;19.10;1.00
14031;DHT22;7090;49.436;8.490;2022-09-09T07:35:28;19.20;1.00
14031;DHT22;7090;49.436;8.490;2022-09-09T07:37:54;19.00;1.00
14031;DHT22;7090;49.436;8.490;2022-09-09T07:40:20;18.90;1.00
14031;DHT22;7090;49.436;8.490;2022-09-09T07:42:47;18.80;1.00
14031;DHT22;7090;49.436;8.490;2022-09-09T07:45:13;18.80;1.00
14031;DHT22;7090;49.436;8.490;2022-09-09T07:47:39;18.80;1.00
14031;DHT22;7090;49.436;8.490;2022-09-09T07:50:08;18.70;1.00
14031;DHT22;7090;49.436;8.490;2022-09-09T07:52:34;18.60;1.00
14031;DHT22;7090;49.436;8.490;2022-09-09T07:55:00;18.50;1.00
14031;DHT22;7090;49.436;8.490;2022-09-09T07:57:28;18.60;1.00
14031;DHT22;7090;49.436;8.490;2022-09-09T07:59:55;18.60;1.00
14031;DHT22;7090;49.436;8.490;2022-09-09T08:02:22;18.60;1.00
14031;DHT22;7090;49.436;8.490;2022-09-09T08:04:48;18.80;1.00
14031;DHT22;7090;49.436;8.490;2022-09-09T08:07:14;19.00;1.00
14031;DHT22;7090;49.436;8.490;2022-09-09T08:09:41;19.20;1.00
14031;DHT22;7090;49.436;8.490;2022-09-09T08:12:06;19.40;1.00
14031;DHT22;7090;49.436;8.490;2022-09-09T08:14:34;19.70;99.90
14031;DHT22;7090;49.436;8.490;2022-09-09T08:16:59;19.90;99.90
14031;DHT22;7090;49.436;8.490;2022-09-09T08:19:25;19.90;99.90
14031;DHT22;7090;49.436;8.490;2022-09-09T08:21:51;19.40;1.00
14031;DHT22;7090;49.436;8.490;2022-09-09T08:24:17;19.10;1.00
14031;DHT22;7090;49.436;8.490;2022-09-09T08:26:46;19.00;1.00
14031;DHT22;7090;49.436;8.490;2022-09-09T08:29:13;18.70;1.00
14031;DHT22;7090;49.436;8.490;2022-09-09T08:31:45;18.50;99.90
14031;DHT22;7090;49.436;8.490;2022-09-09T08:34:11;18.30;33.20
14031;DHT22;7090;49.436;8.490;2022-09-09T08:36:42;18.10;99.90
14031;DHT22;7090;49.436;8.490;2022-09-09T08:39:08;18.20;99.90
14031;DHT22;7090;49.436;8.490;2022-09-09T08:50:13;18.80;99.90
14031;DHT22;7090;49.436;8.490;2022-09-09T08:52:50;18.80;3.60
14031;DHT22;7090;49.436;8.490;2022-09-09T08:55:24;18.70;1.00
14031;DHT22;7090;49.436;8.490;2022-09-09T08:57:53;18.90;1.00
14031;DHT22;7090;49.436;8.490;2022-09-09T09:00:20;19.00;1.00
14031;DHT22;7090;49.436;8.490;2022-09-09T09:05:36;19.10;1.00
14031;DHT22;7090;49.436;8.490;2022-09-09T09:08:29;19.30;1.00
14031;DHT22;7090;49.436;8.490;2022-09-09T09:10:58;19.30;1.00
14031;DHT22;7090;49.436;8.490;2022-09-09T09:15:59;20.40;99.90
14031;DHT22;7090;49.436;8.490;2022-09-09T09:18:26;20.50;99.90
14031;DHT22;7090;49.436;8.490;2022-09-09T09:23:39;21.00;30.40
14031;DHT22;7090;49.436;8.490;2022-09-09T09:26:09;21.30;1.00
14031;DHT22;7090;49.436;8.490;2022-09-09T09:28:36;20.70;1.00
14031;DHT22;7090;49.436;8.490;2022-09-09T09:31:07;20.70;1.00
14031;DHT22;7090;49.436;8.490;2022-09-09T09:33:50;20.60;1.00
14031;DHT22;7090;49.436;8.490;2022-09-09T09:36:18;20.50;1.00
14031;DHT22;7090;49.436;8.490;2022-09-09T09:38:58;20.40;49.70
14031;DHT22;7090;49.436;8.490;2022-09-09T09:41:40;20.20;1.00
14031;DHT22;7090;49.436;8.490;2022-09-09T09:44:22;20.00;99.90
14031;DHT22;7090;49.436;8.490;2022-09-09T09:46:49;19.50;1.00
14031;DHT22;7090;49.436;8.490;2022-09-09T09:49:14;18.60;99.90
14031;DHT22;7090;49.436;8.490;2022-09-09T09:51:40;17.80;99.90
14031;DHT22;7090;49.436;8.490;2022-09-09T09:54:37;17.40;99.90
14031;DHT22;7090;49.436;8.490;2022-09-09T09:57:14;16.80;99.90
14031;DHT22;7090;49.436;8.490;2022-09-09T09:59:41;16.40;99.90
14031;DHT22;7090;49.436;8.490;2022-09-09T10:02:20;16.40;99.90
14031;DHT22;7090;49.436;8.490;2022-09-09T10:05:01;16.40;99.90
14031;DHT22;7090;49.436;8.490;2022-09-09T10:07:26;16.30;99.90
14031;DHT22;7090;49.436;8.490;2022-09-09T10:09:56;16.60;99.90
14031;DHT22;7090;49.436;8.490;2022-09-09T10:43:55;20.30;1.00
14031;DHT22;7090;49.436;8.490;2022-09-09T10:55:19;21.30;1.00
14031;DHT22;7090;49.436;8.490;2022-09-09T10:57:48;21.30;1.00
14031;DHT22;7090;49.436;8.490;2022-09-09T11:02:58;21.80;99.90
14031;DHT22;7090;49.436;8.490;2022-09-09T11:05:44;22.10;99.90
14031;DHT22;7090;49.436;8.490;2022-09-09T11:08:23;21.90;99.90
14031;DHT22;7090;49.436;8.490;2022-09-09T11:11:19;20.90;99.90
14031;DHT22;7090;49.436;8.490;2022-09-09T11:17:33;20.80;1.00
14031;DHT22;7090;49.436;8.490;2022-09-09T11:20:01;20.90;99.90
14031;DHT22;7090;49.436;8.490;2022-09-09T11:34:06;22.20;66.70
14031;DHT22;7090;49.436;8.490;2022-09-09T11:39:18;22.20;1.00
14031;DHT22;7090;49.436;8.490;2022-09-09T11:41:47;22.30;1.00
14031;DHT22;7090;49.436;8.490;2022-09-09T11:44:17;23.00;1.00
14031;DHT22;7090;49.436;8.490;2022-09-09T11:46:49;22.70;1.00
14031;DHT22;7090;49.436;8.490;2022-09-09T11:49:39;22.90;1.00
14031;DHT22;7090;49.436;8.490;2022-09-09T11:54:48;23.10;1.00
14031;DHT22;7090;49.436;8.490;2022-09-09T11:57:25;23.10;1.00
14031;DHT22;7090;49.436;8.490;2022-09-09T11:59:51;22.60;1.00
14031;DHT22;7090;49.436;8.490;2022-09-09T12:02:27;22.80;1.00
14031;DHT22;7090;49.436;8.490;2022-09-09T12:07:58;23.80;99.90
14031;DHT22;7090;49.436;8.490;2022-09-09T12:10:35;23.50;99.90
14031;DHT22;7090;49.436;8.490;2022-09-09T12:13:24;23.50;1.00
14031;DHT22;7090;49.436;8.490;2022-09-09T12:15:54;22.60;99.90
14031;DHT22;7090;49.436;8.490;2022-09-09T12:18:37;22.30;1.00
14031;DHT22;7090;49.436;8.490;2022-09-09T12:21:34;21.80;1.00
14031;DHT22;7090;49.436;8.490;2022-09-09T12:24:13;21.20;1.00
14031;DHT22;7090;49.436;8.490;2022-09-09T12:26:56;21.30;1.00
14031;DHT22;7090;49.436;8.490;2022-09-09T12:29:29;21.10;1.00
14031;DHT22;7090;49.436;8.490;2022-09-09T12:32:10;21.00;1.00
14031;DHT22;7090;49.436;8.490;2022-09-09T12:37:59;21.70;1.00
14031;DHT22;7090;49.436;8.490;2022-09-09T12:40:31;21.80;1.00
14031;DHT22;7090;49.436;8.490;2022-09-09T12:42:58;22.70;99.90
14031;DHT22;7090;49.436;8.490;2022-09-09T12:45:29;23.30;99.90
14031;DHT22;7090;49.436;8.490;2022-09-09T12:48:00;23.70;1.00
14031;DHT22;7090;49.436;8.490;2022-09-09T12:50:36;24.00;99.90
14031;DHT22;7090;49.436;8.490;2022-09-09T12:53:11;24.90;99.90
14031;DHT22;7090;49.436;8.490;2022-09-09T12:55:58;24.60;99.90
14031;DHT22;7090;49.436;8.490;2022-09-09T12:58:25;23.90;99.90
14031;DHT22;7090;49.436;8.490;2022-09-09T13:00:55;23.60;99.90
14031;DHT22;7090;49.436;8.490;2022-09-09T13:03:24;23.50;64.40
14031;DHT22;7090;49.436;8.490;2022-09-09T13:05:50;23.40;69.90
14031;DHT22;7090;49.436;8.490;2022-09-09T13:08:17;23.20;99.90
14031;DHT22;7090;49.436;8.490;2022-09-09T13:10:50;23.00;99.90
14031;DHT22;7090;49.436;8.490;2022-09-09T13:13:30;22.90;99.90
14031;DHT22;7090;49.436;8.490;2022-09-09T13:15:58;23.00;99.90
14031;DHT22;7090;49.436;8.490;2022-09-09T13:18:28;23.00;99.90
14031;DHT22;7090;49.436;8.490;2022-09-09T13:20:54;22.70;1.00
14031;DHT22;7090;49.436;8.490;2022-09-09T13:23:34;22.30;1.00
14031;DHT22;7090;49.436;8.490;2022-09-09T13:26:06;22.00;1.00
14031;DHT22;7090;49.436;8.490;2022-09-09T13:28:46;21.60;99.90
14031;DHT22;7090;49.436;8.490;2022-09-09T13:31:38;21.30;99.90
14031;DHT22;7090;49.436;8.490;2022-09-09T13:34:22;21.50;99.90
14031;DHT22;7090;49.436;8.490;2022-09-09T13:36:53;22.30;99.90
14031;DHT22;7090;49.436;8.490;2022-09-09T13:39:19;22.70;1.00
14031;DHT22;7090;49.436;8.490;2022-09-09T13:41:46;23.10;1.00
14031;DHT22;7090;49.436;8.490;2022-09-09T13:44:25;23.40;99.90
14031;DHT22;7090;49.436;8.490;2022-09-09T13:47:03;23.70;99.90
14031;DHT22;7090;49.436;8.490;2022-09-09T13:49:30;23.70;99.90
14031;DHT22;7090;49.436;8.490;2022-09-09T13:52:24;22.30;99.90
14031;DHT22;7090;49.436;8.490;2022-09-09T13:54:52;21.60;1.00
14031;DHT22;7090;49.436;8.490;2022-09-09T13:57:21;21.10;1.00
14031;DHT22;7090;49.436;8.490;2022-09-09T13:59:50;21.30;1.00
14031;DHT22;7090;49.436;8.490;2022-09-09T14:02:16;21.40;1.00
14031;DHT22;7090;49.436;8.490;2022-09-09T14:04:43;22.00;1.00
14031;DHT22;7090;49.436;8.490;2022-09-09T14:07:12;22.70;99.90
14031;DHT22;7090;49.436;8.490;2022-09-09T14:09:38;22.00;99.90
14031;DHT22;7090;49.436;8.490;2022-09-09T14:12:05;22.50;99.90
14031;DHT22;7090;49.436;8.490;2022-09-09T14:14:30;22.40;99.90
14031;DHT22;7090;49.436;8.490;2022-09-09T14:16:56;22.20;99.90
14031;DHT22;7090;49.436;8.490;2022-09-09T14:19:21;22.50;99.90
14031;DHT22;7090;49.436;8.490;2022-09-09T14:21:47;22.70;99.90
14031;DHT22;7090;49.436;8.490;2022-09-09T14:24:14;22.80;99.90
14031;DHT22;7090;49.436;8.490;2022-09-09T14:26:39;22.10;99.90
14031;DHT22;7090;49.436;8.490;2022-09-09T14:29:06;21.70;99.90
14031;DHT22;7090;49.436;8.490;2022-09-09T14:31:31;21.80;99.90
14031;DHT22;7090;49.436;8.490;2022-09-09T14:33:58;22.20;99.90
14031;DHT22;7090;49.436;8.490;2022-09-09T14:36:24;22.50;99.90
14031;DHT22;7090;49.436;8.490;2022-09-09T14:38:50;22.00;99.90
14031;DHT22;7090;49.436;8.490;2022-09-09T14:41:17;21.90;1.00
14031;DHT22;7090;49.436;8.490;2022-09-09T14:43:44;22.10;99.90
14031;DHT22;7090;49.436;8.490;2022-09-09T14:46:12;22.10;99.90
14031;DHT22;7090;49.436;8.490;2022-09-09T14:48:38;22.30;1.00
14031;DHT22;7090;49.436;8.490;2022-09-09T14:51:14;21.70;1.00
14031;DHT22;7090;49.436;8.490;2022-09-09T14:53:41;21.50;1.00
14031;DHT22;7090;49.436;8.490;2022-09-09T14:56:16;21.50;1.00
14031;DHT22;7090;49.436;8.490;2022-09-09T14:58:42;21.40;26.30
14031;DHT22;7090;49.436;8.490;2022-09-09T15:01:11;20.90;99.90
14031;DHT22;7090;49.436;8.490;2022-09-09T15:03:38;20.30;1.00
14031;DHT22;7090;49.436;8.490;2022-09-09T15:06:09;19.80;1.00
14031;DHT22;7090;49.436;8.490;2022-09-09T15:08:36;19.50;1.00
14031;DHT22;7090;49.436;8.490;2022-09-09T15:11:03;18.90;1.00
14031;DHT22;7090;49.436;8.490;2022-09-09T15:13:29;18.50;99.90
14031;DHT22;7090;49.436;8.490;2022-09-09T15:15:55;18.00;99.90
14031;DHT22;7090;49.436;8.490;2022-09-09T15:18:21;17.40;99.90
14031;DHT22;7090;49.436;8.490;2022-09-09T15:20:47;17.00;99.90
14031;DHT22;7090;49.436;8.490;2022-09-09T15:23:13;16.60;99.90
14031;DHT22;7090;49.436;8.490;2022-09-09T15:26:00;16.30;99.90
14031;DHT22;7090;49.436;8.490;2022-09-09T15:28:25;16.00;99.90
14031;DHT22;7090;49.436;8.490;2022-09-09T15:30:52;15.80;99.90
14031;DHT22;7090;49.436;8.490;2022-09-09T15:33:21;15.70;99.90
14031;DHT22;7090;49.436;8.490;2022-09-09T15:35:47;15.60;99.90
14031;DHT22;7090;49.436;8.490;2022-09-09T15:38:13;15.50;99.90
14031;DHT22;7090;49.436;8.490;2022-09-09T15:40:40;15.60;99.90
14031;DHT22;7090;49.436;8.490;2022-09-09T15:43:06;15.70;99.90
14031;DHT22;7090;49.436;8.490;2022-09-09T15:45:33;15.70;99.90
14031;DHT22;7090;49.436;8.490;2022-09-09T15:48:03;15.80;99.90
14031;DHT22;7090;49.436;8.490;2022-09-09T15:50:29;15.90;99.90
14031;DHT22;7090;49.436;8.490;2022-09-09T15:52:56;16.00;99.90
14031;DHT22;7090;49.436;8.490;2022-09-09T15:55:22;16.20;99.90
14031;DHT22;7090;49.436;8.490;2022-09-09T15:57:49;16.30;99.90
14031;DHT22;7090;49.436;8.490;2022-09-09T16:00:15;16.50;99.90
14031;DHT22;7090;49.436;8.490;2022-09-09T16:02:41;16.70;99.90
14031;DHT22;7090;49.436;8.490;2022-09-09T16:05:08;16.80;99.90
14031;DHT22;7090;49.436;8.490;2022-09-09T16:07:33;16.80;99.90
14031;DHT22;7090;49.436;8.490;2022-09-09T16:10:00;16.80;99.90
14031;DHT22;7090;49.436;8.490;2022-09-09T16:12:25;17.00;99.90
14031;DHT22;7090;49.436;8.490;2022-09-09T16:14:51;17.00;99.90
14031;DHT22;7090;49.436;8.490;2022-09-09T16:17:17;17.00;99.90
14031;DHT22;7090;49.436;8.490;2022-09-09T16:19:44;17.00;99.90
14031;DHT22;7090;49.436;8.490;2022-09-09T16:22:11;17.00;99.90
14031;DHT22;7090;49.436;8.490;2022-09-09T16:24:37;17.00;99.90
14031;DHT22;7090;49.436;8.490;2022-09-09T16:27:02;16.90;99.90
14031;DHT22;7090;49.436;8.490;2022-09-09T16:29:28;16.90;99.90
14031;DHT22;7090;49.436;8.490;2022-09-09T16:31:54;16.90;99.90
14031;DHT22;7090;49.436;8.490;2022-09-09T16:34:20;17.20;99.90
14031;DHT22;7090;49.436;8.490;2022-09-09T16:36:47;17.40;99.90
14031;DHT22;7090;49.436;8.490;2022-09-09T16:39:18;17.60;99.90
14031;DHT22;7090;49.436;8.490;2022-09-09T16:41:45;17.30;99.90
14031;DHT22;7090;49.436;8.490;2022-09-09T16:44:13;17.10;99.90
14031;DHT22;7090;49.436;8.490;2022-09-09T16:46:42;17.00;99.90
14031;DHT22;7090;49.436;8.490;2022-09-09T16:49:09;17.00;99.90
14031;DHT22;7090;49.436;8.490;2022-09-09T16:51:37;16.90;99.90
14031;DHT22;7090;49.436;8.490;2022-09-09T16:54:05;16.80;99.90
14031;DHT22;7090;49.436;8.490;2022-09-09T16:56:39;16.80;99.90
14031;DHT22;7090;49.436;8.490;2022-09-09T16:59:13;16.80;99.90
14031;DHT22;7090;49.436;8.490;2022-09-09T17:01:41;16.80;99.90
14031;DHT22;7090;49.436;8.490;2022-09-09T17:04:12;16.80;99.90
14031;DHT22;7090;49.436;8.490;2022-09-09T17:06:39;16.70;99.90
14031;DHT22;7090;49.436;8.490;2022-09-09T17:09:09;16.70;99.90
14031;DHT22;7090;49.436;8.490;2022-09-09T17:11:35;16.70;99.90
14031;DHT22;7090;49.436;8.490;2022-09-09T17:14:02;16.70;99.90
14031;DHT22;7090;49.436;8.490;2022-09-09T17:16:29;16.70;99.90
14031;DHT22;7090;49.436;8.490;2022-09-09T17:18:56;16.70;99.90
14031;DHT22;7090;49.436;8.490;2022-09-09T17:21:23;16.80;99.90
14031;DHT22;7090;49.436;8.490;2022-09-09T17:23:51;16.90;99.90
14031;DHT22;7090;49.436;8.490;2022-09-09T17:26:19;16.80;99.90
14031;DHT22;7090;49.436;8.490;2022-09-09T17:28:46;16.80;99.90
14031;DHT22;7090;49.436;8.490;2022-09-09T17:31:14;16.90;99.90
14031;DHT22;7090;49.436;8.490;2022-09-09T17:33:44;16.90;99.90
14031;DHT22;7090;49.436;8.490;2022-09-09T17:38:38;17.00;99.90
14031;DHT22;7090;49.436;8.490;2022-09-09T17:41:16;17.00;99.90
14031;DHT22;7090;49.436;8.490;2022-09-09T17:43:42;17.10;99.90
14031;DHT22;7090;49.436;8.490;2022-09-09T17:46:20;17.10;99.90
14031;DHT22;7090;49.436;8.490;2022-09-09T17:48:48;17.10;99.90
14031;DHT22;7090;49.436;8.490;2022-09-09T17:51:16;17.20;99.90
14031;DHT22;7090;49.436;8.490;2022-09-09T17:53:46;17.10;99.90
14031;DHT22;7090;49.436;8.490;2022-09-09T17:56:15;17.20;99.90
14031;DHT22;7090;49.436;8.490;2022-09-09T17:58:41;17.20;99.90
14031;DHT22;7090;49.436;8.490;2022-09-09T18:01:22;17.20;99.90
14031;DHT22;7090;49.436;8.490;2022-09-09T18:03:49;17.10;99.90
14031;DHT22;7090;49.436;8.490;2022-09-09T18:06:23;17.00;99.90
14031;DHT22;7090;49.436;8.490;2022-09-09T18:08:57;16.90;99.90
14031;DHT22;7090;49.436;8.490;2022-09-09T18:11:26;16.90;99.90
14031;DHT22;7090;49.436;8.490;2022-09-09T18:13:56;16.70;99.90
14031;DHT22;7090;49.436;8.490;2022-09-09T18:16:23;16.60;99.90